KCNM/CNM METAR and TAF weather

Enter ICAO airport designator
Station Type Date Time Source
KCNM METAR 2021/09/23 18:53 UTC NOAA

KCNM 231853Z AUTO 15010KT 10SM CLR 28/04 A3006 RMK AO2 SLP128 T02780039


Station Type Date Time Source
KCNM Decoded METAR 2021/09/23 18:53 UTC NOAA

CARLSBAD CAVERN CITY, NM, United States (KCNM) 32-20N 104-16W 985M
Sep 23, 2021 - 02:53 PM EDT / 2021.09.23 1853 UTC
Wind: from the SSE (150 degrees) at 12 MPH (10 KT):0
Visibility: 10 mile(s):0
Sky conditions: clear
Temperature: 82.0 F (27.8 C)
Dew Point: 39.0 F (3.9 C)
Relative Humidity: 21%
Pressure (altimeter): 30.06 in. Hg (1017 hPa)
ob: KCNM 231853Z AUTO 15010KT 10SM CLR 28/04 A3006 RMK AO2 SLP128 T02780039
cycle: 19

Station Type Date Time Source
KCNM TAF 2021/09/23 18:24 UTC NOAA

TAF KCNM 231722Z 2318/2418 16011KT P6SM SCT250

Example: see airport list